createdAt,value
2023-05-18T00:00:37.853Z,101986.81
2023-05-18T00:03:07.085Z,101992.25
2023-05-18T00:05:35.508Z,101986.09
2023-05-18T00:08:04.174Z,101986.66
2023-05-18T00:10:32.527Z,101979.19
2023-05-18T00:13:00.991Z,101980.53
2023-05-18T00:15:29.603Z,101979.38
2023-05-18T00:17:58.701Z,101988.13
2023-05-18T00:20:27.050Z,101985.56
2023-05-18T00:22:55.377Z,101978.13
2023-05-18T00:25:24.050Z,101984.13
2023-05-18T00:27:52.467Z,101988.41
2023-05-18T00:30:21.490Z,101983.34
2023-05-18T00:32:49.794Z,101991.16
2023-05-18T00:35:18.188Z,101985.00
2023-05-18T00:37:46.559Z,101987.16
2023-05-18T00:40:15.018Z,101987.06
2023-05-18T00:42:43.585Z,101987.53
2023-05-18T00:45:12.063Z,101989.66
2023-05-18T00:47:40.567Z,101991.50
2023-05-18T00:50:09.628Z,101982.34
2023-05-18T00:52:38.454Z,101983.91
2023-05-18T00:55:07.752Z,101985.75
2023-05-18T00:57:36.735Z,101978.50
2023-05-18T01:00:10.622Z,101986.16
2023-05-18T01:02:42.820Z,101988.78
2023-05-18T01:05:12.211Z,101981.78
2023-05-18T01:07:44.423Z,101984.44
2023-05-18T01:10:16.707Z,101994.50
2023-05-18T01:12:59.575Z,101990.44
2023-05-18T01:15:38.319Z,101995.56
2023-05-18T01:18:34.294Z,101994.28
2023-05-18T01:21:14.077Z,101989.25
2023-05-18T01:24:10.155Z,101994.66
2023-05-18T01:26:41.120Z,101992.41
2023-05-18T01:29:11.832Z,101993.50
2023-05-18T01:31:40.382Z,101984.56
2023-05-18T01:34:08.840Z,101990.72
2023-05-18T01:36:37.070Z,101995.81
2023-05-18T01:39:05.594Z,101999.63
2023-05-18T01:41:39.518Z,101998.69
2023-05-18T01:44:23.703Z,101992.00
2023-05-18T01:47:03.565Z,102001.84
2023-05-18T01:49:47.145Z,102005.19
2023-05-18T01:52:28.871Z,102001.63
2023-05-18T01:55:03.301Z,102001.53
2023-05-18T01:57:33.705Z,102007.59
2023-05-18T02:00:04.876Z,102007.50
2023-05-18T02:02:45.265Z,102010.72
2023-05-18T02:05:16.312Z,102007.75
2023-05-18T02:07:47.239Z,102001.19
2023-05-18T02:10:16.052Z,101997.03
2023-05-18T02:12:44.351Z,101996.69
2023-05-18T02:15:12.718Z,101998.84
2023-05-18T02:17:41.463Z,102001.47
2023-05-18T02:20:10.187Z,101995.59
2023-05-18T02:22:38.564Z,102001.59
2023-05-18T02:25:07.272Z,101995.25
2023-05-18T02:27:36.715Z,101998.38
2023-05-18T02:30:08.239Z,102004.94
2023-05-18T02:32:38.512Z,101998.25
2023-05-18T02:35:08.892Z,101996.38
2023-05-18T02:37:42.239Z,101995.91
2023-05-18T02:40:13.646Z,102005.78
2023-05-18T02:42:42.607Z,102001.97
2023-05-18T02:45:12.148Z,102002.34
2023-05-18T02:47:44.043Z,102007.22
2023-05-18T02:50:13.104Z,102002.69
2023-05-18T02:52:45.509Z,102002.09
2023-05-18T02:55:14.239Z,102003.03
2023-05-18T02:57:57.083Z,102007.09
2023-05-18T03:00:35.210Z,101997.56
2023-05-18T03:03:04.261Z,101997.44
2023-05-18T03:05:32.723Z,102000.06
2023-05-18T03:08:02.387Z,101995.91
2023-05-18T03:10:32.237Z,102009.47
2023-05-18T03:13:00.961Z,102000.88
2023-05-18T03:15:31.858Z,102000.88
2023-05-18T03:18:00.666Z,102009.09
2023-05-18T03:20:31.613Z,102007.06
2023-05-18T03:22:59.879Z,102009.59
2023-05-18T03:25:28.360Z,102009.22
2023-05-18T03:27:56.950Z,102012.19
2023-05-18T03:30:25.343Z,102005.50
2023-05-18T03:32:53.943Z,102001.34
2023-05-18T03:35:22.286Z,102010.16
2023-05-18T03:37:50.645Z,102004.09
2023-05-18T03:40:19.498Z,102013.59
2023-05-18T03:42:48.548Z,102011.94
2023-05-18T03:45:17.684Z,102017.66
2023-05-18T03:47:46.206Z,102013.00
2023-05-18T03:50:14.595Z,102022.03
2023-05-18T03:52:44.894Z,102021.22
2023-05-18T03:55:13.615Z,102029.44
2023-05-18T03:57:41.923Z,102024.53
2023-05-18T04:00:13.227Z,102021.81
2023-05-18T04:02:47.347Z,102027.06
2023-05-18T04:05:21.651Z,102022.41
2023-05-18T04:07:49.929Z,102021.94
2023-05-18T04:10:19.629Z,102025.78
2023-05-18T04:12:47.995Z,102020.66
2023-05-18T04:15:18.036Z,102035.19
2023-05-18T04:17:46.388Z,102034.72
2023-05-18T04:20:16.801Z,102034.38
2023-05-18T04:22:48.211Z,102034.97
2023-05-18T04:25:17.023Z,102034.50
2023-05-18T04:27:45.827Z,102034.03
2023-05-18T04:30:14.768Z,102044.25
2023-05-18T04:32:44.417Z,102039.75
2023-05-18T04:35:12.890Z,102039.25
2023-05-18T04:37:42.719Z,102036.19
2023-05-18T04:40:16.975Z,102046.78
2023-05-18T04:42:47.704Z,102047.16
2023-05-18T04:45:20.757Z,102052.03
2023-05-18T04:47:54.642Z,102046.69
2023-05-18T04:50:24.311Z,102051.81
2023-05-18T04:52:53.946Z,102046.53
2023-05-18T04:55:27.440Z,102055.47
2023-05-18T04:58:05.034Z,102056.78
2023-05-18T05:00:33.512Z,102057.47
2023-05-18T05:03:01.897Z,102054.38
2023-05-18T05:05:30.618Z,102059.59
2023-05-18T05:07:59.394Z,102058.69
2023-05-18T05:10:30.926Z,102054.50
2023-05-18T05:12:59.026Z,102057.53
2023-05-18T05:15:27.471Z,102059.31
2023-05-18T05:17:58.147Z,102062.28
2023-05-18T05:20:26.555Z,102059.56
2023-05-18T05:22:55.319Z,102065.50
2023-05-18T05:25:28.166Z,102060.81
2023-05-18T05:27:56.783Z,102062.84
2023-05-18T05:30:51.163Z,102059.84
2023-05-18T05:33:19.918Z,102060.72
2023-05-18T05:36:13.119Z,102068.06
2023-05-18T05:38:42.193Z,102064.97
2023-05-18T05:41:10.779Z,102062.34
2023-05-18T05:43:40.424Z,102067.44
2023-05-18T05:46:08.924Z,102066.41
2023-05-18T05:48:37.334Z,102069.03
2023-05-18T05:51:05.857Z,102066.69
2023-05-18T05:53:35.039Z,102071.97
2023-05-18T05:56:05.016Z,102072.06
2023-05-18T05:58:37.099Z,102076.28
2023-05-18T06:01:05.583Z,102078.91
2023-05-18T06:03:35.908Z,102074.09
2023-05-18T06:06:07.182Z,102071.13
2023-05-18T06:08:35.526Z,102075.38
2023-05-18T06:11:08.745Z,102072.72
2023-05-18T06:13:38.671Z,102068.63
2023-05-18T06:16:07.062Z,102072.56
2023-05-18T06:18:36.499Z,102067.16
2023-05-18T06:21:06.725Z,102070.78
2023-05-18T06:23:35.052Z,102071.16
2023-05-18T06:26:03.476Z,102072.94
2023-05-18T06:28:57.213Z,102076.59
2023-05-18T06:31:32.925Z,102073.59
2023-05-18T06:34:10.724Z,102077.22
2023-05-18T06:36:39.285Z,102074.72
2023-05-18T06:39:07.619Z,102068.47
2023-05-18T06:41:36.172Z,102080.66
2023-05-18T06:44:04.794Z,102080.69
2023-05-18T06:46:38.225Z,102089.53
2023-05-18T06:49:22.343Z,102087.72
2023-05-18T06:51:58.862Z,102095.16
2023-05-18T06:54:31.475Z,102088.84
2023-05-18T06:57:06.141Z,102082.84
2023-05-18T06:59:35.931Z,102089.25
2023-05-18T07:02:14.112Z,102090.38
2023-05-18T07:05:09.184Z,102092.34
2023-05-18T07:07:38.753Z,102087.38
2023-05-18T07:10:32.007Z,102097.91
2023-05-18T07:13:14.637Z,102085.78
2023-05-18T07:15:48.347Z,102091.34
2023-05-18T07:18:20.649Z,102089.41
2023-05-18T07:20:49.106Z,102085.28
2023-05-18T07:23:17.412Z,102088.03
2023-05-18T07:25:45.661Z,102089.16
2023-05-18T07:28:13.968Z,102093.59
2023-05-18T07:30:44.092Z,102091.09
2023-05-18T07:33:13.447Z,102093.03
2023-05-18T07:35:41.836Z,102088.03
2023-05-18T07:38:10.198Z,102079.16
2023-05-18T07:40:38.671Z,102084.13
2023-05-18T07:43:06.913Z,102087.41
2023-05-18T07:45:35.346Z,102091.00
2023-05-18T07:48:04.052Z,102091.81
2023-05-18T07:50:32.337Z,102097.03
2023-05-18T07:53:00.637Z,102097.78
2023-05-18T07:55:29.171Z,102101.03
2023-05-18T07:57:57.645Z,102102.53
2023-05-18T08:00:50.795Z,102097.84
2023-05-18T08:03:19.647Z,102101.06
2023-05-18T08:05:48.018Z,102104.13
2023-05-18T08:08:16.358Z,102102.81
2023-05-18T08:10:44.732Z,102096.34
2023-05-18T08:13:13.060Z,102087.50
2023-05-18T08:15:41.373Z,102090.44
2023-05-18T08:18:09.795Z,102092.31
2023-05-18T08:20:38.816Z,102089.19
2023-05-18T08:23:07.151Z,102093.53
2023-05-18T08:25:35.654Z,102099.84
2023-05-18T08:28:04.295Z,102095.19
2023-05-18T08:30:32.571Z,102094.72
2023-05-18T08:33:01.589Z,102084.78
2023-05-18T08:35:30.284Z,102091.94
2023-05-18T08:37:58.906Z,102088.69
2023-05-18T08:40:37.445Z,102086.44
2023-05-18T08:43:23.187Z,102088.06
2023-05-18T08:46:21.581Z,102084.72
2023-05-18T08:48:53.654Z,102088.63
2023-05-18T08:51:22.817Z,102085.34
2023-05-18T08:53:54.433Z,102082.75
2023-05-18T08:56:25.044Z,102084.38
2023-05-18T08:58:57.432Z,102079.38
2023-05-18T09:01:29.373Z,102078.94
2023-05-18T09:03:58.520Z,102077.72
2023-05-18T09:06:28.264Z,102082.75
2023-05-18T09:08:58.997Z,102079.75
2023-05-18T09:11:28.581Z,102082.53
2023-05-18T09:13:56.955Z,102069.03
2023-05-18T09:16:25.305Z,102072.91
2023-05-18T09:18:54.006Z,102068.53
2023-05-18T09:21:22.455Z,102078.25
2023-05-18T09:23:51.435Z,102072.75
2023-05-18T09:26:22.810Z,102056.25
2023-05-18T09:28:54.764Z,102053.72
2023-05-18T09:31:27.549Z,102056.06
2023-05-18T09:33:56.074Z,102056.06
2023-05-18T09:36:26.318Z,102048.53
2023-05-18T09:39:01.810Z,102047.00
2023-05-18T09:41:30.657Z,102046.53
2023-05-18T09:43:59.058Z,102038.94
2023-05-18T09:46:32.525Z,102040.44
2023-05-18T09:49:25.914Z,102023.97
2023-05-18T09:51:54.336Z,102023.81
2023-05-18T09:54:24.418Z,102029.38
2023-05-18T09:57:08.924Z,102031.69
2023-05-18T09:59:38.898Z,102032.06
2023-05-18T10:02:08.791Z,102033.41
2023-05-18T10:04:42.624Z,102026.03
2023-05-18T10:07:16.506Z,102025.22
2023-05-18T10:09:46.091Z,102028.00
2023-05-18T10:12:16.979Z,102011.69
2023-05-18T10:14:46.500Z,102009.13
2023-05-18T10:17:17.113Z,102002.50
2023-05-18T10:19:49.502Z,102012.22
2023-05-18T10:22:19.466Z,102019.09
2023-05-18T10:24:52.742Z,102009.16
2023-05-18T10:27:28.342Z,102016.41
2023-05-18T10:30:03.566Z,102015.72
2023-05-18T10:32:31.944Z,102005.75
2023-05-18T10:35:01.130Z,102005.00
2023-05-18T10:37:31.780Z,102002.44
2023-05-18T10:40:00.964Z,101994.59
2023-05-18T10:42:31.139Z,101987.00
2023-05-18T10:45:01.409Z,101982.03
2023-05-18T10:47:30.006Z,101990.66
2023-05-18T10:50:00.703Z,101993.94
2023-05-18T10:52:31.884Z,101985.03
2023-05-18T10:55:01.137Z,101981.84
2023-05-18T10:57:51.352Z,101979.50
2023-05-18T11:00:20.464Z,101973.31
2023-05-18T11:02:50.797Z,101985.13
2023-05-18T11:05:26.647Z,101977.97
2023-05-18T11:08:05.707Z,101980.50
2023-05-18T11:10:47.179Z,101978.16
2023-05-18T11:13:15.852Z,101961.69
2023-05-18T11:15:56.606Z,101967.88
2023-05-18T11:18:38.632Z,101963.41
2023-05-18T11:21:25.388Z,101957.31
2023-05-18T11:24:21.753Z,101960.56
2023-05-18T11:26:55.137Z,101954.06
2023-05-18T11:29:34.899Z,101952.44
2023-05-18T11:32:04.901Z,101945.53
2023-05-18T11:34:47.643Z,101946.66
2023-05-18T11:37:38.297Z,101953.94
2023-05-18T11:40:13.424Z,101949.88
2023-05-18T11:42:41.979Z,101949.25
2023-05-18T11:45:13.779Z,101947.94
2023-05-18T11:47:42.380Z,101949.97
2023-05-18T11:50:14.809Z,101941.34
2023-05-18T11:52:57.160Z,101930.84
2023-05-18T11:55:41.268Z,101943.31
2023-05-18T11:58:10.638Z,101933.66
2023-05-18T12:00:39.606Z,101936.88
2023-05-18T12:03:09.088Z,101936.66
2023-05-18T12:05:37.542Z,101932.72
2023-05-18T12:08:06.417Z,101933.59
2023-05-18T12:10:37.230Z,101923.78
2023-05-18T12:13:06.443Z,101932.31
2023-05-18T12:15:34.776Z,101934.97
2023-05-18T12:18:03.128Z,101928.75
2023-05-18T12:20:31.846Z,101920.97
2023-05-18T12:23:01.124Z,101915.28
2023-05-18T12:25:29.727Z,101914.66
2023-05-18T12:27:59.011Z,101913.25
2023-05-18T12:30:35.908Z,101913.56
2023-05-18T12:33:04.915Z,101897.00
2023-05-18T12:35:33.948Z,101903.78
2023-05-18T12:38:02.973Z,101903.75
2023-05-18T12:40:44.915Z,101909.25
2023-05-18T12:43:13.685Z,101891.78
2023-05-18T12:45:45.017Z,101896.44
2023-05-18T12:48:14.851Z,101893.94
2023-05-18T12:50:50.968Z,101888.81
2023-05-18T12:53:21.308Z,101887.69
2023-05-18T12:56:01.578Z,101894.69
2023-05-18T12:58:59.379Z,101884.88
2023-05-18T13:01:28.012Z,101884.78
2023-05-18T13:03:58.680Z,101887.19
2023-05-18T13:06:27.264Z,101882.19
2023-05-18T13:08:55.932Z,101871.47
2023-05-18T13:11:27.711Z,101867.25
2023-05-18T13:14:05.450Z,101875.31
2023-05-18T13:16:38.725Z,101875.53
2023-05-18T13:19:09.927Z,101869.34
2023-05-18T13:21:39.132Z,101864.34
2023-05-18T13:24:07.613Z,101861.38
2023-05-18T13:26:35.936Z,101858.97
2023-05-18T13:29:04.994Z,101861.81
2023-05-18T13:31:33.345Z,101865.25
2023-05-18T13:34:01.738Z,101858.00
2023-05-18T13:36:30.130Z,101864.16
2023-05-18T13:38:58.489Z,101846.72
2023-05-18T13:41:27.116Z,101843.72
2023-05-18T13:43:55.416Z,101840.31
2023-05-18T13:46:23.776Z,101839.34
2023-05-18T13:48:52.076Z,101836.84
2023-05-18T13:51:20.456Z,101844.22
2023-05-18T13:53:48.790Z,101846.31
2023-05-18T13:56:17.139Z,101844.69
2023-05-18T13:58:46.013Z,101840.16
2023-05-18T14:01:16.598Z,101844.69
2023-05-18T14:03:45.037Z,101833.84
2023-05-18T14:06:40.721Z,101831.47
2023-05-18T14:09:09.356Z,101830.47
2023-05-18T14:11:38.386Z,101822.97
2023-05-18T14:14:06.681Z,101828.44
2023-05-18T14:16:59.823Z,101823.22
2023-05-18T14:19:28.214Z,101824.94
2023-05-18T14:21:56.574Z,101822.41
2023-05-18T14:24:24.861Z,101816.44
2023-05-18T14:26:53.588Z,101814.81
2023-05-18T14:29:22.022Z,101809.28
2023-05-18T14:31:52.481Z,101807.50
2023-05-18T14:34:20.787Z,101801.56
2023-05-18T14:36:49.077Z,101803.78
2023-05-18T14:39:17.364Z,101805.38
2023-05-18T14:41:45.867Z,101792.13
2023-05-18T14:44:14.149Z,101794.53
2023-05-18T14:46:43.149Z,101802.97
2023-05-18T14:49:11.523Z,101792.78
2023-05-18T14:51:40.842Z,101790.25
2023-05-18T14:54:09.200Z,101793.56
2023-05-18T14:56:37.497Z,101788.41
2023-05-18T14:59:05.988Z,101778.88
2023-05-18T15:01:34.271Z,101787.28
2023-05-18T15:04:03.274Z,101788.25
2023-05-18T15:06:31.717Z,101792.44
2023-05-18T15:09:00.016Z,101791.69
2023-05-18T15:11:28.363Z,101782.50
2023-05-18T15:13:56.626Z,101777.19
2023-05-18T15:16:25.705Z,101786.50
2023-05-18T15:18:54.060Z,101776.75
2023-05-18T15:21:22.429Z,101786.25
2023-05-18T15:23:50.935Z,101779.06
2023-05-18T15:26:19.209Z,101777.13
2023-05-18T15:28:47.484Z,101772.56
2023-05-18T15:31:16.294Z,101775.31
2023-05-18T15:33:44.876Z,101771.75
2023-05-18T15:36:13.217Z,101769.72
2023-05-18T15:38:41.583Z,101774.78
2023-05-18T15:41:09.852Z,101780.97
2023-05-18T15:43:39.090Z,101771.66
2023-05-18T15:46:07.488Z,101779.28
2023-05-18T15:48:36.898Z,101781.22
2023-05-18T15:51:05.208Z,101772.00
2023-05-18T15:53:33.501Z,101771.31
2023-05-18T15:56:02.945Z,101772.34
2023-05-18T15:58:31.272Z,101775.22
2023-05-18T16:00:59.644Z,101774.28
2023-05-18T16:03:28.046Z,101769.28
2023-05-18T16:05:56.422Z,101766.22
2023-05-18T16:08:24.671Z,101770.56
2023-05-18T16:10:53.086Z,101767.44
2023-05-18T16:13:25.728Z,101768.06
2023-05-18T16:15:54.131Z,101757.91
2023-05-18T16:18:22.429Z,101770.19
2023-05-18T16:20:50.846Z,101766.56
2023-05-18T16:23:19.094Z,101765.63
2023-05-18T16:25:47.440Z,101764.22
2023-05-18T16:28:15.700Z,101758.78
2023-05-18T16:30:44.052Z,101760.75
2023-05-18T16:33:12.396Z,101764.88
2023-05-18T16:35:40.990Z,101758.75
2023-05-18T16:38:09.387Z,101765.94
2023-05-18T16:40:37.683Z,101754.47
2023-05-18T16:43:06.403Z,101762.63
2023-05-18T16:45:34.926Z,101760.41
2023-05-18T16:48:03.763Z,101762.53
2023-05-18T16:50:32.156Z,101760.75
2023-05-18T16:53:00.644Z,101761.56
2023-05-18T16:55:28.966Z,101764.72
2023-05-18T16:57:57.256Z,101765.03
2023-05-18T17:00:25.717Z,101764.91
2023-05-18T17:02:54.049Z,101768.28
2023-05-18T17:05:22.958Z,101769.28
2023-05-18T17:07:53.120Z,101764.84
2023-05-18T17:10:21.514Z,101771.78
2023-05-18T17:12:49.919Z,101778.38
2023-05-18T17:15:18.214Z,101767.72
2023-05-18T17:17:46.506Z,101768.13
2023-05-18T17:20:15.111Z,101775.53
2023-05-18T17:22:43.397Z,101775.56
2023-05-18T17:25:11.814Z,101765.44
2023-05-18T17:27:40.150Z,101768.63
2023-05-18T17:30:11.184Z,101768.53
2023-05-18T17:32:39.905Z,101767.34
2023-05-18T17:35:11.766Z,101759.22
2023-05-18T17:37:41.817Z,101753.81
2023-05-18T17:40:10.898Z,101764.97
2023-05-18T17:42:39.526Z,101759.47
2023-05-18T17:45:08.529Z,101759.09
2023-05-18T17:47:38.078Z,101763.44
2023-05-18T17:50:07.375Z,101759.59
2023-05-18T17:52:35.683Z,101761.91
2023-05-18T17:55:05.644Z,101757.56
2023-05-18T17:57:34.055Z,101754.50
2023-05-18T18:00:02.400Z,101759.72
2023-05-18T18:02:41.249Z,101768.91
2023-05-18T18:05:09.985Z,101768.41
2023-05-18T18:07:39.127Z,101765.34
2023-05-18T18:10:08.676Z,101775.53
2023-05-18T18:12:37.029Z,101772.59
2023-05-18T18:15:06.039Z,101766.75
2023-05-18T18:17:34.600Z,101768.97
2023-05-18T18:20:03.256Z,101764.84
2023-05-18T18:22:33.082Z,101762.91
2023-05-18T18:25:02.739Z,101766.81
2023-05-18T18:27:31.024Z,101765.31
2023-05-18T18:29:59.365Z,101763.03
2023-05-18T18:32:27.633Z,101767.78
2023-05-18T18:34:56.413Z,101769.25
2023-05-18T18:37:24.818Z,101768.19
2023-05-18T18:39:54.189Z,101775.63
2023-05-18T18:42:22.591Z,101770.53
2023-05-18T18:44:52.939Z,101777.16
2023-05-18T18:47:21.371Z,101779.75
2023-05-18T18:49:49.710Z,101779.72
2023-05-18T18:52:18.111Z,101780.44
2023-05-18T18:54:46.408Z,101780.59
2023-05-18T18:57:14.928Z,101784.47
2023-05-18T18:59:43.168Z,101787.06
2023-05-18T19:02:11.648Z,101780.84
2023-05-18T19:04:40.004Z,101796.81
2023-05-18T19:07:08.446Z,101800.84
2023-05-18T19:09:36.687Z,101802.53
2023-05-18T19:12:05.619Z,101803.06
2023-05-18T19:14:33.995Z,101811.69
2023-05-18T19:17:02.347Z,101800.94
2023-05-18T19:19:32.546Z,101808.00
2023-05-18T19:22:00.923Z,101816.69
2023-05-18T19:24:29.337Z,101816.22
2023-05-18T19:26:57.708Z,101818.59
2023-05-18T19:29:26.046Z,101815.34
2023-05-18T19:31:55.832Z,101823.09
2023-05-18T19:34:24.438Z,101826.19
2023-05-18T19:36:53.362Z,101823.72
2023-05-18T19:39:21.726Z,101829.47
2023-05-18T19:41:50.005Z,101835.69
2023-05-18T19:44:18.274Z,101834.47
2023-05-18T19:46:46.936Z,101823.84
2023-05-18T19:49:15.401Z,101837.72
2023-05-18T19:51:44.282Z,101835.34
2023-05-18T19:54:12.627Z,101838.72
2023-05-18T19:56:41.197Z,101842.63
2023-05-18T19:59:09.465Z,101846.81
2023-05-18T20:01:37.918Z,101846.69
2023-05-18T20:04:06.249Z,101859.19
2023-05-18T20:06:34.983Z,101852.81
2023-05-18T20:09:03.727Z,101862.38
2023-05-18T20:11:31.958Z,101854.22
2023-05-18T20:14:01.254Z,101857.22
2023-05-18T20:16:34.233Z,101855.94
2023-05-18T20:19:03.143Z,101856.47
2023-05-18T20:21:32.044Z,101863.25
2023-05-18T20:24:00.642Z,101863.22
2023-05-18T20:26:31.253Z,101863.13
2023-05-18T20:29:00.384Z,101866.09
2023-05-18T20:31:28.943Z,101863.16
2023-05-18T20:33:57.860Z,101861.13
2023-05-18T20:36:26.712Z,101862.72
2023-05-18T20:38:55.038Z,101865.16
2023-05-18T20:41:24.300Z,101874.72
2023-05-18T20:43:53.113Z,101873.22
2023-05-18T20:46:47.928Z,101871.44
2023-05-18T20:49:21.670Z,101874.13
2023-05-18T20:52:15.462Z,101863.16
2023-05-18T20:54:46.041Z,101880.19
2023-05-18T20:57:14.499Z,101875.44
2023-05-18T20:59:42.910Z,101885.88
2023-05-18T21:02:11.226Z,101883.34
2023-05-18T21:04:39.546Z,101883.28
2023-05-18T21:07:09.807Z,101878.91
2023-05-18T21:09:38.119Z,101871.78
2023-05-18T21:12:07.856Z,101878.56
2023-05-18T21:14:36.211Z,101877.81
2023-05-18T21:17:05.414Z,101882.91
2023-05-18T21:19:36.892Z,101873.31
2023-05-18T21:22:20.911Z,101880.59
2023-05-18T21:24:52.939Z,101877.88
2023-05-18T21:27:39.801Z,101884.66
2023-05-18T21:30:12.727Z,101889.16
2023-05-18T21:32:42.416Z,101892.56
2023-05-18T21:35:11.279Z,101895.38
2023-05-18T21:37:39.545Z,101895.47
2023-05-18T21:40:12.835Z,101894.97
2023-05-18T21:42:54.137Z,101891.97
2023-05-18T21:45:26.237Z,101892.25
2023-05-18T21:47:55.632Z,101887.38
2023-05-18T21:50:23.976Z,101885.78
2023-05-18T21:52:58.222Z,101889.16
2023-05-18T21:55:26.606Z,101883.28
2023-05-18T21:57:54.920Z,101896.09
2023-05-18T22:00:48.120Z,101901.38
2023-05-18T22:03:23.580Z,101891.44
2023-05-18T22:06:20.371Z,101895.88
2023-05-18T22:09:01.858Z,101898.38
2023-05-18T22:11:55.573Z,101898.09
2023-05-18T22:14:42.309Z,101898.69
2023-05-18T22:17:10.736Z,101897.88
2023-05-18T22:19:39.071Z,101889.88
2023-05-18T22:22:11.571Z,101894.88
2023-05-18T22:24:44.942Z,101889.91
2023-05-18T22:27:13.221Z,101887.69
2023-05-18T22:29:41.633Z,101888.84
2023-05-18T22:32:11.082Z,101887.72
2023-05-18T22:34:39.498Z,101881.09
2023-05-18T22:37:07.760Z,101878.06
2023-05-18T22:39:36.133Z,101883.34
2023-05-18T22:42:06.817Z,101890.78
2023-05-18T22:44:35.254Z,101886.38
2023-05-18T22:47:03.877Z,101885.81
2023-05-18T22:49:32.594Z,101888.56
2023-05-18T22:52:26.636Z,101884.44
2023-05-18T22:54:55.023Z,101881.13
2023-05-18T22:57:23.297Z,101880.03
2023-05-18T22:59:51.624Z,101881.41
2023-05-18T23:02:19.938Z,101883.63
2023-05-18T23:04:48.216Z,101881.16
2023-05-18T23:07:16.733Z,101883.63
2023-05-18T23:09:45.334Z,101877.81
2023-05-18T23:12:13.603Z,101881.97
2023-05-18T23:14:41.973Z,101873.41
2023-05-18T23:17:11.432Z,101889.44
2023-05-18T23:19:40.859Z,101881.13
2023-05-18T23:22:09.176Z,101881.41
2023-05-18T23:24:37.488Z,101885.56
2023-05-18T23:27:05.997Z,101884.44
2023-05-18T23:29:34.254Z,101886.66
2023-05-18T23:32:03.512Z,101888.31
2023-05-18T23:34:32.416Z,101888.81
2023-05-18T23:37:04.808Z,101886.59
2023-05-18T23:39:36.153Z,101887.16
2023-05-18T23:42:04.239Z,101880.53
2023-05-18T23:44:32.999Z,101881.63
2023-05-18T23:47:01.899Z,101885.75
2023-05-18T23:49:30.810Z,101879.97
2023-05-18T23:52:02.349Z,101882.41
2023-05-18T23:54:31.254Z,101882.38
2023-05-18T23:56:59.948Z,101882.38
2023-05-18T23:59:28.537Z,101874.69
